Time;durP1;ratioP1;P1;durP2;ratioP2;P2;SDS_P1;SDS_P2;PMS_P1;PMS_P2;Temp;Humidity;BMP_temperature;BMP_pressure;BME280_temperature;BME280_humidity;BME280_pressure;Samples;Min_cycle;Max_cycle;Signal;HPM_P1;HPM_P2
2022/09/20 00:01:07;;;;;;;1.48;0.93;;;;;;;8.21;100.00;101620.03;5041645;28;20188;-48
2022/09/20 00:03:38;;;;;;;0.68;0.68;;;;;;;8.19;100.00;101614.72;5039473;28;20542;-46
2022/09/20 00:06:05;;;;;;;0.60;0.60;;;;;;;8.16;100.00;101619.25;5039884;28;20742;-49
2022/09/20 00:08:31;;;;;;;1.38;0.93;;;;;;;8.20;100.00;101621.84;5042450;28;20767;-47
2022/09/20 00:11:02;;;;;;;3.00;0.93;;;;;;;8.12;100.00;101614.84;5043318;28;20179;-47
2022/09/20 00:13:29;;;;;;;1.20;0.90;;;;;;;8.08;100.00;101621.13;5035117;28;20207;-47
2022/09/20 00:15:54;;;;;;;0.80;0.80;;;;;;;8.04;100.00;101628.31;5040786;28;20233;-53
2022/09/20 00:18:20;;;;;;;0.95;0.90;;;;;;;8.04;100.00;101625.63;5040835;28;20200;-48
2022/09/20 00:20:46;;;;;;;2.55;0.90;;;;;;;8.05;100.00;101619.41;5038401;28;20222;-50
2022/09/20 00:23:12;;;;;;;2.03;0.88;;;;;;;7.97;100.00;101630.19;5036145;28;20184;-47
2022/09/20 00:25:38;;;;;;;0.80;0.80;;;;;;;7.89;100.00;101624.06;5043742;28;20231;-48
2022/09/20 00:28:04;;;;;;;0.80;0.80;;;;;;;7.75;100.00;101624.28;5035543;28;20211;-48
2022/09/20 00:30:31;;;;;;;2.35;0.80;;;;;;;7.71;100.00;101625.22;5042611;28;20183;-48
2022/09/20 00:32:57;;;;;;;3.05;0.90;;;;;;;7.90;100.00;101628.50;5049657;28;20212;-52
2022/09/20 00:35:24;;;;;;;0.93;0.80;;;;;;;7.77;100.00;101627.78;5033268;28;20188;-51
2022/09/20 00:37:49;;;;;;;2.78;0.85;;;;;;;7.77;100.00;101627.78;5036424;28;20587;-50
2022/09/20 00:40:19;;;;;;;2.08;0.80;;;;;;;7.75;100.00;101626.94;5038720;28;20241;-50
2022/09/20 00:42:45;;;;;;;1.48;0.90;;;;;;;7.77;100.00;101622.47;5041366;28;20275;-47
2022/09/20 00:45:24;;;;;;;1.63;1.10;;;;;;;7.73;100.00;101626.06;5038282;28;20252;-50
2022/09/20 00:48:08;;;;;;;2.08;1.10;;;;;;;7.73;100.00;101626.06;5039582;28;20323;-49
2022/09/20 00:50:44;;;;;;;2.15;1.30;;;;;;;7.68;100.00;101629.72;5039091;28;20690;-52
2022/09/20 00:53:25;;;;;;;1.67;0.77;;;;;;;7.71;100.00;101633.22;5041459;28;20234;-48
2022/09/20 00:56:00;;;;;;;1.55;0.98;;;;;;;7.82;100.00;101633.94;5040257;28;20226;-48
2022/09/20 00:58:28;;;;;;;3.05;1.17;;;;;;;7.96;100.00;101632.84;5041430;28;20218;-47
2022/09/20 01:00:56;;;;;;;1.55;1.45;;;;;;;8.14;100.00;101643.28;5037255;28;20899;-46
2022/09/20 01:03:26;;;;;;;2.47;1.20;;;;;;;8.03;100.00;101635.44;5037508;28;20278;-49
2022/09/20 01:05:53;;;;;;;3.78;1.35;;;;;;;8.08;100.00;101640.69;5042035;28;20265;-47
2022/09/20 01:08:20;;;;;;;2.78;1.10;;;;;;;8.11;100.00;101638.00;5035407;28;20281;-49
2022/09/20 01:10:46;;;;;;;2.25;1.40;;;;;;;8.25;100.00;101635.97;5037976;28;20584;-49
2022/09/20 01:13:11;;;;;;;2.90;1.27;;;;;;;8.09;100.00;101642.47;5042266;28;20215;-46
2022/09/20 01:15:39;;;;;;;2.83;1.42;;;;;;;8.34;100.00;101636.75;5038727;28;20559;-51
2022/09/20 01:18:06;;;;;;;6.00;1.65;;;;;;;8.38;100.00;101641.16;5041377;28;20907;-51
2022/09/20 01:20:38;;;;;;;2.05;1.45;;;;;;;8.30;100.00;101637.72;5040130;28;20188;-49
2022/09/20 01:23:37;;;;;;;3.00;1.48;;;;;;;8.09;100.00;101647.81;5040253;28;20229;-48
2022/09/20 01:26:13;;;;;;;3.88;1.30;;;;;;;7.95;100.00;101649.78;5042818;28;20183;-49
2022/09/20 01:28:41;;;;;;;4.05;1.48;;;;;;;7.84;100.00;101641.94;5054754;28;20710;-48
2022/09/20 01:31:33;;;;;;;1.60;1.30;;;;;;;7.69;100.00;101648.34;5035392;28;20191;-49
2022/09/20 01:34:00;;;;;;;3.53;1.10;;;;;;;7.69;100.00;101647.47;5034075;28;20184;-47
2022/09/20 01:36:35;;;;;;;2.72;1.40;;;;;;;7.60;100.00;101656.47;5044306;28;20578;-48
2022/09/20 01:39:48;;;;;;;3.00;1.38;;;;;;;7.82;100.00;101649.06;5032067;28;20222;-51
2022/09/20 01:42:14;;;;;;;4.13;1.50;;;;;;;7.65;100.00;101646.63;5032278;28;20290;-50
2022/09/20 01:45:06;;;;;;;1.42;1.23;;;;;;;7.55;100.00;101653.00;5041830;28;20254;-49
2022/09/20 01:47:49;;;;;;;2.97;1.27;;;;;;;7.54;100.00;101657.47;5042706;28;20725;-50
2022/09/20 01:50:48;;;;;;;2.40;1.33;;;;;;;7.48;100.00;101653.94;5030461;28;20685;-50
2022/09/20 01:53:30;;;;;;;1.30;1.20;;;;;;;7.56;100.00;101665.41;5034990;28;20610;-50
2022/09/20 01:56:04;;;;;;;1.73;1.27;;;;;;;7.50;100.00;101668.16;5033631;28;20194;-50
2022/09/20 01:59:07;;;;;;;2.30;1.40;;;;;;;7.50;100.00;101663.72;5034539;28;20289;-50
2022/09/20 02:01:39;;;;;;;1.75;1.20;;;;;;;7.49;100.00;101677.94;5048266;28;20187;-51
2022/09/20 02:04:16;;;;;;;2.38;1.20;;;;;;;7.54;100.00;101673.47;5042532;28;20822;-51
2022/09/20 02:07:06;;;;;;;2.95;1.40;;;;;;;7.56;100.00;101673.41;5045469;28;20627;-50
2022/09/20 02:09:56;;;;;;;2.22;1.20;;;;;;;7.57;100.00;101686.75;5036766;28;20286;-51
2022/09/20 02:12:42;;;;;;;1.35;1.25;;;;;;;7.60;100.00;101684.03;5040835;28;20183;-52
2022/09/20 02:15:40;;;;;;;2.58;1.50;;;;;;;7.55;100.00;101685.00;5041533;28;20187;-51
2022/09/20 02:18:08;;;;;;;5.35;1.48;;;;;;;7.48;100.00;101672.63;5038860;28;20238;-49
2022/09/20 02:20:51;;;;;;;2.72;1.40;;;;;;;7.40;100.00;101678.94;5034215;28;20184;-50
2022/09/20 02:23:36;;;;;;;2.50;1.48;;;;;;;7.40;100.00;101694.94;5044452;28;20303;-52
2022/09/20 02:26:21;;;;;;;3.50;1.50;;;;;;;7.27;100.00;101687.09;5042647;28;20188;-49
2022/09/20 02:28:59;;;;;;;1.98;1.17;;;;;;;7.21;100.00;101693.34;5040089;28;20246;-50
2022/09/20 02:31:56;;;;;;;3.58;1.40;;;;;;;7.41;100.00;101687.81;5037981;28;20180;-52
2022/09/20 02:34:39;;;;;;;3.35;1.48;;;;;;;7.38;100.00;101699.38;5036662;28;20211;-49
2022/09/20 02:37:29;;;;;;;2.72;1.30;;;;;;;7.25;100.00;101708.41;5044826;28;20628;-52
2022/09/20 02:40:12;;;;;;;2.80;1.38;;;;;;;7.22;100.00;101713.78;5042261;28;20298;-49
2022/09/20 02:42:46;;;;;;;1.85;1.52;;;;;;;7.08;100.00;101707.72;5040705;28;20172;-50
2022/09/20 02:45:14;;;;;;;2.72;1.33;;;;;;;7.17;100.00;101712.94;5037762;28;20188;-50
2022/09/20 02:47:42;;;;;;;3.00;1.65;;;;;;;7.02;100.00;101719.31;5036423;28;20658;-50
2022/09/20 02:50:23;;;;;;;2.92;1.40;;;;;;;7.01;100.00;101717.53;5049722;28;20537;-51
2022/09/20 02:53:43;;;;;;;3.10;1.58;;;;;;;7.13;100.00;101728.09;5046084;28;20231;-50
2022/09/20 02:56:26;;;;;;;3.15;1.60;;;;;;;7.01;100.00;101715.75;5011717;28;20207;-52
2022/09/20 02:59:10;;;;;;;4.63;1.40;;;;;;;6.89;100.00;101721.22;5040666;28;20199;-52
2022/09/20 03:01:41;;;;;;;2.00;1.40;;;;;;;6.93;100.00;101733.59;5035303;28;20192;-52
2022/09/20 03:04:20;;;;;;;3.03;1.33;;;;;;;6.81;100.00;101725.72;5032990;28;20676;-50
2022/09/20 03:07:04;;;;;;;2.15;1.50;;;;;;;6.91;100.00;101730.06;5035538;28;20333;-49
2022/09/20 03:09:43;;;;;;;3.45;1.40;;;;;;;6.76;100.00;101736.41;5040492;28;20266;-52
2022/09/20 03:12:48;;;;;;;1.33;1.23;;;;;;;6.84;100.00;101733.66;5034526;28;20183;-50
2022/09/20 03:15:38;;;;;;;1.83;1.27;;;;;;;6.73;100.00;101731.06;5035306;28;20631;-51
2022/09/20 03:18:07;;;;;;;1.65;1.00;;;;;;;6.88;100.00;101734.53;5044305;28;20632;-52
2022/09/20 03:20:44;;;;;;;3.30;1.40;;;;;;;6.79;100.00;101731.03;5035159;28;20198;-50
2022/09/20 03:23:32;;;;;;;3.03;1.15;;;;;;;6.87;100.00;101733.66;5035201;28;20222;-51
2022/09/20 03:26:06;;;;;;;2.67;1.50;;;;;;;6.84;100.00;101736.31;5037735;28;20238;-50
2022/09/20 03:28:43;;;;;;;3.20;1.30;;;;;;;6.72;100.00;101741.78;5037805;28;21171;-50
2022/09/20 03:31:54;;;;;;;1.95;1.05;;;;;;;6.84;100.00;101741.66;5034079;28;20273;-51
2022/09/20 03:34:22;;;;;;;1.38;1.02;;;;;;;6.86;100.00;101744.31;5038801;28;20219;-51
2022/09/20 03:36:54;;;;;;;1.38;1.13;;;;;;;6.82;100.00;101743.44;5039997;28;20199;-52
2022/09/20 03:39:41;;;;;;;2.63;0.98;;;;;;;6.76;100.00;101738.19;5040264;28;20606;-51
2022/09/20 03:42:23;;;;;;;1.10;1.08;;;;;;;6.83;100.00;101741.69;5038106;28;20195;-52
2022/09/20 03:45:04;;;;;;;1.63;1.00;;;;;;;6.74;100.00;101732.88;5035579;28;20175;-48
2022/09/20 03:47:37;;;;;;;1.15;1.00;;;;;;;6.77;100.00;101737.28;5040617;28;20650;-48
2022/09/20 03:50:14;;;;;;;2.17;1.20;;;;;;;6.84;100.00;101743.44;5040682;28;20207;-49
2022/09/20 03:53:01;;;;;;;2.38;1.13;;;;;;;6.73;100.00;101743.53;5040546;28;20257;-49
2022/09/20 03:55:37;;;;;;;2.60;1.30;;;;;;;6.74;100.00;101737.31;5044524;28;20187;-48
2022/09/20 03:58:22;;;;;;;1.45;1.35;;;;;;;6.81;100.00;101739.03;5042696;28;20203;-48
2022/09/20 04:01:14;;;;;;;2.28;1.45;;;;;;;6.79;100.00;101741.69;5038613;28;20333;-46
2022/09/20 04:04:23;;;;;;;1.67;1.58;;;;;;;6.65;100.00;101738.28;5038730;28;20171;-47
2022/09/20 04:07:07;;;;;;;2.47;1.63;;;;;;;6.74;100.00;101742.63;5041007;28;20183;-47
2022/09/20 04:09:41;;;;;;;3.47;1.92;;;;;;;6.80;100.00;101735.50;5035550;28;20200;-48
2022/09/20 04:12:23;;;;;;;4.20;1.60;;;;;;;6.81;100.00;101737.25;5036030;28;20176;-47
2022/09/20 04:15:31;;;;;;;2.53;1.73;;;;;;;6.79;100.00;101747.03;5051501;28;20164;-49
2022/09/20 04:18:06;;;;;;;4.85;2.05;;;;;;;6.81;100.00;101742.56;5039972;28;20182;-49
2022/09/20 04:20:42;;;;;;;6.32;2.22;;;;;;;6.87;100.00;101746.97;5045658;28;20199;-48
2022/09/20 04:23:26;;;;;;;2.25;1.50;;;;;;;6.77;100.00;101758.59;5039620;28;20191;-47
2022/09/20 04:25:51;;;;;;;2.35;1.40;;;;;;;6.86;100.00;101747.84;5042938;28;20229;-48
2022/09/20 04:28:24;;;;;;;1.35;1.20;;;;;;;6.89;100.00;101762.94;5054880;28;20204;-48
2022/09/20 04:30:55;;;;;;;3.00;1.50;;;;;;;6.92;100.00;101757.59;5032545;28;20172;-47
2022/09/20 04:33:27;;;;;;;4.15;1.50;;;;;;;6.86;100.00;101761.16;5046606;28;20214;-47
2022/09/20 04:36:29;;;;;;;2.30;1.23;;;;;;;6.81;100.00;101761.22;5042361;28;20705;-45
2022/09/20 04:39:33;;;;;;;3.92;1.30;;;;;;;6.74;100.00;101750.63;5038592;28;20218;-48
2022/09/20 04:42:17;;;;;;;4.22;1.38;;;;;;;6.74;100.00;101761.28;5041787;28;20237;-47
2022/09/20 04:45:27;;;;;;;3.85;1.10;;;;;;;6.65;100.00;101753.34;5039559;28;20255;-46
2022/09/20 04:48:41;;;;;;;2.22;1.20;;;;;;;6.56;100.00;101756.97;5042328;28;20224;-47
2022/09/20 04:51:31;;;;;;;2.47;1.13;;;;;;;6.58;100.00;101765.81;5036553;28;20219;-49
2022/09/20 04:54:18;;;;;;;2.47;1.08;;;;;;;6.57;100.00;101764.06;5042834;28;20290;-49
2022/09/20 04:56:43;;;;;;;2.42;1.13;;;;;;;6.62;100.00;101772.00;5032563;28;20253;-46
2022/09/20 04:59:41;;;;;;;3.47;1.33;;;;;;;6.47;100.00;101757.91;5038029;28;20191;-50
2022/09/20 05:02:41;;;;;;;4.78;1.30;;;;;;;6.47;100.00;101765.00;5039438;28;20188;-50
2022/09/20 05:05:25;;;;;;;2.67;1.40;;;;;;;6.39;100.00;101767.72;5039887;28;20179;-51
2022/09/20 05:08:09;;;;;;;3.72;1.02;;;;;;;6.49;100.00;101779.19;5038254;28;20187;-50
2022/09/20 05:10:47;;;;;;;5.22;1.38;;;;;;;6.25;100.00;101780.22;5037070;28;20257;-50
2022/09/20 05:13:51;;;;;;;3.40;1.55;;;;;;;6.30;100.00;101779.31;5033414;28;20326;-50
2022/09/20 05:16:42;;;;;;;4.85;1.27;;;;;;;6.23;100.00;101774.91;5034139;28;20188;-50
2022/09/20 05:19:42;;;;;;;5.93;1.38;;;;;;;6.24;100.00;101770.47;5033952;28;20217;-52
2022/09/20 05:22:45;;;;;;;3.10;1.40;;;;;;;6.34;100.00;101783.72;5041063;28;20237;-53
2022/09/20 05:25:37;;;;;;;2.20;1.40;;;;;;;6.34;100.00;101786.38;5036263;28;20194;-51
2022/09/20 05:28:09;;;;;;;3.65;1.48;;;;;;;6.34;100.00;101782.81;5023717;28;20222;-51
2022/09/20 05:30:43;;;;;;;5.78;1.50;;;;;;;6.36;100.00;101795.25;5033561;28;20188;-53
2022/09/20 05:33:14;;;;;;;5.10;1.35;;;;;;;6.49;100.00;101790.72;5033490;28;20344;-52
2022/09/20 05:35:47;;;;;;;4.13;1.08;;;;;;;6.61;100.00;101789.78;5040587;28;20662;-51
2022/09/20 05:38:35;;;;;;;9.27;1.50;;;;;;;6.79;100.00;101786.09;5038362;28;20207;-52
2022/09/20 05:41:17;;;;;;;8.45;1.90;;;;;;;6.89;100.00;101797.59;5035174;28;20187;-51
2022/09/20 05:44:03;;;;;;;6.57;1.88;;;;;;;6.99;100.00;101796.59;5033777;28;20183;-53
2022/09/20 05:46:38;;;;;;;6.30;1.50;;;;;;;7.03;100.00;101795.69;5043760;28;20179;-52
2022/09/20 05:49:15;;;;;;;10.70;1.88;;;;;;;7.16;100.00;101802.66;5044251;28;20411;-51
2022/09/20 05:51:55;;;;;;;12.68;2.38;;;;;;;7.37;100.00;101804.28;5037414;28;20750;-50
2022/09/20 05:54:52;;;;;;;8.88;2.35;;;;;;;7.67;100.00;101807.53;5029040;28;20658;-48
2022/09/20 05:57:38;;;;;;;11.25;2.25;;;;;;;8.10;100.00;101801.69;5036635;28;20217;-46
2022/09/20 06:00:13;;;;;;;11.80;2.13;;;;;;;8.44;100.00;101810.19;5030105;28;20237;-48
2022/09/20 06:03:04;;;;;;;12.48;2.42;;;;;;;8.69;100.00;101804.50;5031688;28;20171;-48
2022/09/20 06:06:05;;;;;;;9.85;1.95;;;;;;;8.91;100.00;101797.03;5036684;28;20192;-48
2022/09/20 06:08:42;;;;;;;10.13;2.53;;;;;;;9.19;100.00;101809.97;5034995;28;20710;-49
2022/09/20 06:11:16;;;;;;;7.25;2.05;;;;;;;9.43;100.00;101809.53;5033343;28;20195;-49
2022/09/20 06:14:02;;;;;;;6.30;2.25;;;;;;;9.57;100.00;101811.94;5034036;28;20211;-48
2022/09/20 06:16:40;;;;;;;6.03;1.80;;;;;;;9.78;100.00;101802.66;5046712;28;20601;-48
2022/09/20 06:19:41;;;;;;;4.70;2.00;;;;;;;9.86;100.00;101803.41;5037444;28;20199;-49
2022/09/20 06:22:21;;;;;;;7.93;1.90;;;;;;;10.27;100.00;101803.44;5036241;28;20175;-47
2022/09/20 06:25:26;;;;;;;7.82;1.83;;;;;;;10.31;100.00;101814.09;5034738;28;20599;-47
2022/09/20 06:27:57;;;;;;;10.82;2.30;;;;;;;10.27;100.00;101823.06;5006869;28;20702;-48
2022/09/20 06:30:27;;;;;;;10.07;2.35;;;;;;;10.33;100.00;101815.88;5036231;28;20199;-48
2022/09/20 06:33:08;;;;;;;6.30;1.92;;;;;;;10.14;100.00;101826.91;5037975;28;20196;-49
2022/09/20 06:35:43;;;;;;;8.50;2.20;;;;;;;10.28;100.00;101818.63;5053532;28;20191;-49
2022/09/20 06:41:33;;;;;;;9.60;2.00;;;;;;;10.73;100.00;101829.25;5032276;28;20279;-47
2022/09/20 06:44:04;;;;;;;7.53;2.10;;;;;;;10.93;100.00;101818.06;5030071;28;20180;-47
2022/09/20 06:46:31;;;;;;;5.40;2.25;;;;;;;10.91;99.26;101823.47;5031487;28;20226;-46
2022/09/20 06:48:57;;;;;;;5.47;1.83;;;;;;;11.25;99.03;101824.44;5034489;28;20203;-49
2022/09/20 06:51:25;;;;;;;4.95;1.90;;;;;;;11.48;98.10;101821.19;5039242;28;20270;-46
2022/09/20 06:53:52;;;;;;;7.38;2.00;;;;;;;11.57;97.02;101828.09;5034348;28;20659;-49
2022/09/20 06:56:21;;;;;;;7.05;1.60;;;;;;;11.49;96.16;101829.19;5032813;28;20267;-46
2022/09/20 06:58:47;;;;;;;6.20;1.63;;;;;;;11.80;95.65;101832.84;5034766;28;20243;-48
2022/09/20 07:01:13;;;;;;;6.88;2.00;;;;;;;12.06;95.22;101849.16;5035526;28;20541;-48
2022/09/20 07:03:40;;;;;;;9.35;2.00;;;;;;;12.39;94.19;101835.69;5045958;28;20172;-48
2022/09/20 07:06:06;;;;;;;10.82;1.80;;;;;;;12.66;93.01;101836.66;5042568;28;20218;-47
2022/09/20 07:08:31;;;;;;;8.57;1.80;;;;;;;12.42;92.14;101838.28;5043882;28;20231;-47
2022/09/20 07:11:10;;;;;;;8.85;2.17;;;;;;;12.53;91.35;101849.59;5035965;28;20184;-47
2022/09/20 07:13:36;;;;;;;11.25;2.00;;;;;;;12.89;89.46;101843.13;5035863;28;20188;-46
2022/09/20 07:16:06;;;;;;;11.20;2.33;;;;;;;12.91;87.94;101831.38;5048969;28;20217;-47
2022/09/20 07:18:33;;;;;;;6.55;1.67;;;;;;;13.03;88.19;101837.28;5053311;28;20298;-49
2022/09/20 07:21:00;;;;;;;6.13;1.80;;;;;;;13.17;87.38;101851.19;5041189;28;20274;-46
2022/09/20 07:23:30;;;;;;;6.07;1.40;;;;;;;13.11;86.26;101844.19;5032769;28;20176;-47
2022/09/20 07:25:59;;;;;;;7.70;1.90;;;;;;;13.57;85.30;101852.56;5033818;28;20196;-48
2022/09/20 07:28:26;;;;;;;9.23;2.13;;;;;;;12.75;85.59;101851.63;5032869;28;20736;-48
2022/09/20 07:30:52;;;;;;;10.82;2.60;;;;;;;13.35;85.59;101855.13;5034822;28;20188;-48
2022/09/20 07:33:20;;;;;;;11.15;2.05;;;;;;;13.06;85.04;101856.06;5037501;28;20207;-46
2022/09/20 07:35:48;;;;;;;8.65;1.90;;;;;;;13.64;84.95;101845.16;5036766;28;20654;-47
2022/09/20 07:38:14;;;;;;;12.43;2.53;;;;;;;13.81;83.40;101854.41;5035517;28;20409;-47
2022/09/20 07:40:40;;;;;;;9.98;2.20;;;;;;;13.63;84.36;101856.88;5034940;28;20188;-47
2022/09/20 07:43:06;;;;;;;12.68;2.35;;;;;;;13.72;83.12;101856.56;5031949;28;20168;-46
2022/09/20 07:45:33;;;;;;;9.80;1.88;;;;;;;13.78;82.11;101856.34;5034306;28;20639;-48
2022/09/20 07:47:58;;;;;;;7.70;1.80;;;;;;;14.17;80.94;101847.78;5037479;28;20215;-49
2022/09/20 07:50:24;;;;;;;11.93;2.13;;;;;;;14.20;80.92;101856.59;5040447;28;20759;-46
2022/09/20 07:52:50;;;;;;;8.15;1.70;;;;;;;14.51;80.18;101860.84;5045502;28;20223;-48
2022/09/20 07:55:15;;;;;;;12.25;1.88;;;;;;;13.98;80.68;101859.19;5035271;28;20423;-48
2022/09/20 07:57:41;;;;;;;9.63;2.03;;;;;;;14.40;80.92;101861.25;5031865;28;20267;-46
2022/09/20 08:00:08;;;;;;;6.88;1.60;;;;;;;14.28;80.97;101874.31;5033629;28;20187;-46
2022/09/20 08:02:37;;;;;;;13.20;2.13;;;;;;;14.13;80.97;101865.84;5041066;28;20183;-45
2022/09/20 08:05:03;;;;;;;14.70;2.33;;;;;;;13.95;80.38;101871.91;5041067;28;20210;-46
2022/09/20 08:07:29;;;;;;;9.13;2.00;;;;;;;13.73;80.62;101874.47;5038636;28;20207;-47
2022/09/20 08:09:54;;;;;;;13.75;1.90;;;;;;;14.07;81.60;101870.59;5050724;28;20635;-47
2022/09/20 08:12:21;;;;;;;10.25;1.80;;;;;;;14.61;80.18;101872.22;5032095;28;20246;-48
2022/09/20 08:14:47;;;;;;;8.15;1.67;;;;;;;14.77;79.64;101867.97;5042355;28;20225;-46
2022/09/20 08:17:12;;;;;;;11.32;1.67;;;;;;;14.98;77.96;101868.94;5045134;28;20184;-43
2022/09/20 08:19:38;;;;;;;5.53;1.55;;;;;;;15.23;76.34;101870.63;5038524;28;20207;-47
2022/09/20 08:22:05;;;;;;;13.57;2.30;;;;;;;15.22;76.43;101879.69;5047087;28;20191;-43
2022/09/20 08:24:31;;;;;;;7.53;2.08;;;;;;;15.38;74.92;101871.84;5039320;28;20252;-45
2022/09/20 08:26:58;;;;;;;6.65;1.60;;;;;;;15.20;75.15;101870.78;5046823;28;20598;-45
2022/09/20 08:29:24;;;;;;;8.93;1.95;;;;;;;14.79;74.24;101879.56;5042804;28;20235;-45
2022/09/20 08:31:51;;;;;;;7.85;1.67;;;;;;;15.13;73.02;101880.03;5043158;28;20183;-45
2022/09/20 08:34:17;;;;;;;7.20;1.77;;;;;;;14.81;72.42;101884.91;5041703;28;20631;-46
2022/09/20 08:36:45;;;;;;;10.48;1.90;;;;;;;15.15;71.52;101887.16;5038635;28;20536;-46
2022/09/20 08:39:13;;;;;;;8.30;1.75;;;;;;;15.29;71.02;101877.63;5040834;28;20192;-46
2022/09/20 08:41:53;;;;;;;11.05;2.00;;;;;;;15.61;69.81;101878.94;5034666;28;20563;-48
2022/09/20 08:44:24;;;;;;;6.65;1.40;;;;;;;15.69;68.85;101879.50;5016412;28;20176;-46
2022/09/20 08:47:16;;;;;;;12.90;1.60;;;;;;;15.44;67.82;101888.66;5032014;28;20249;-48
2022/09/20 08:49:42;;;;;;;11.32;2.13;;;;;;;14.35;70.40;101895.59;5040161;28;20284;-49
2022/09/20 08:52:18;;;;;;;7.07;1.90;;;;;;;15.34;70.94;101892.66;5043881;28;20666;-48
2022/09/20 08:54:44;;;;;;;6.80;1.33;;;;;;;15.21;69.23;101896.81;5040281;28;20205;-49
2022/09/20 08:57:14;;;;;;;11.75;1.98;;;;;;;15.48;68.06;101883.13;5031158;28;20184;-50
2022/09/20 08:59:40;;;;;;;7.85;1.85;;;;;;;14.89;68.13;101893.59;5037116;28;20200;-49
2022/09/20 09:02:15;;;;;;;9.00;2.00;;;;;;;15.21;69.19;101891.41;5034591;28;20235;-47
2022/09/20 09:04:41;;;;;;;8.82;1.80;;;;;;;15.57;67.88;101893.56;5040674;28;20167;-48
2022/09/20 09:07:12;;;;;;;10.80;1.65;;;;;;;16.06;67.77;101903.13;5040239;28;20277;-50
2022/09/20 09:09:40;;;;;;;11.63;2.00;;;;;;;15.11;68.22;101896.31;5032989;28;20287;-48
2022/09/20 09:12:16;;;;;;;14.75;2.25;;;;;;;15.34;68.40;101898.06;5031311;28;20194;-49
2022/09/20 09:14:48;;;;;;;10.65;2.25;;;;;;;15.64;68.63;101893.22;5038460;28;20257;-49
2022/09/20 09:17:22;;;;;;;7.93;1.77;;;;;;;15.29;67.59;101897.38;5040857;28;20179;-47
2022/09/20 09:19:50;;;;;;;9.48;1.92;;;;;;;15.09;67.52;101908.13;5037689;28;20245;-48
2022/09/20 09:22:34;;;;;;;8.25;1.60;;;;;;;14.63;69.15;101903.56;5034601;28;20785;-49
2022/09/20 09:25:31;;;;;;;11.55;1.88;;;;;;;14.91;69.24;101897.13;5032984;28;20171;-50
2022/09/20 09:28:06;;;;;;;8.48;1.98;;;;;;;14.92;70.12;101898.00;5045387;28;20409;-48
2022/09/20 09:30:38;;;;;;;14.70;1.80;;;;;;;14.93;70.84;101902.44;5045117;28;20198;-49
2022/09/20 09:33:27;;;;;;;9.57;1.90;;;;;;;14.01;71.75;101901.31;5040374;28;20215;-48
2022/09/20 09:35:58;;;;;;;8.50;1.75;;;;;;;14.58;72.19;101913.66;5037316;28;20270;-48
2022/09/20 09:38:27;;;;;;;12.73;2.28;;;;;;;15.51;71.69;101900.09;5033108;28;20989;-50
2022/09/20 09:40:58;;;;;;;8.07;2.28;;;;;;;15.49;69.62;101904.66;5030658;28;20279;-47
2022/09/20 09:43:31;;;;;;;7.97;2.20;;;;;;;16.10;68.23;101911.13;5031993;28;20198;-51
2022/09/20 09:46:17;;;;;;;9.15;1.58;;;;;;;16.41;68.46;101908.78;5055643;28;20188;-49
2022/09/20 09:48:48;;;;;;;8.23;1.48;;;;;;;15.43;67.15;101911.19;5038438;28;20223;-47
2022/09/20 09:51:19;;;;;;;9.65;1.67;;;;;;;15.18;70.36;101914.03;5037014;28;20708;-49
2022/09/20 09:53:47;;;;;;;11.20;2.08;;;;;;;15.16;69.81;101909.63;5034250;28;20590;-50
2022/09/20 09:56:27;;;;;;;7.57;1.60;;;;;;;15.79;69.70;101909.78;5030854;28;20338;-47
2022/09/20 09:59:02;;;;;;;8.07;1.45;;;;;;;16.03;68.14;101911.41;5041992;28;20290;-48
2022/09/20 10:01:48;;;;;;;10.25;1.65;;;;;;;16.02;67.49;101908.75;5042233;28;20274;-48
2022/09/20 10:04:45;;;;;;;7.93;1.38;;;;;;;16.22;65.60;101902.47;5038213;28;20219;-49
2022/09/20 10:07:22;;;;;;;7.18;1.60;;;;;;;16.12;65.80;101909.25;5035059;28;20192;-47
2022/09/20 10:10:16;;;;;;;8.77;1.50;;;;;;;16.37;63.44;101914.41;5029389;28;20246;-48
2022/09/20 10:12:48;;;;;;;6.93;1.80;;;;;;;16.22;65.64;101913.28;5031986;28;22190;-49
2022/09/20 10:15:26;;;;;;;7.20;1.80;;;;;;;16.57;65.63;101913.50;5050416;28;20662;-49
2022/09/20 10:18:04;;;;;;;5.80;1.77;;;;;;;15.95;63.91;101916.25;5038282;28;20190;-49
2022/09/20 10:20:45;;;;;;;9.38;1.90;;;;;;;16.01;63.91;101915.13;5042849;28;20195;-47
2022/09/20 10:23:43;;;;;;;7.75;1.63;;;;;;;16.48;63.91;101915.69;5031304;28;20191;-49
2022/09/20 10:26:42;;;;;;;7.30;1.65;;;;;;;16.66;64.08;101921.19;5030348;28;20232;-48
2022/09/20 10:29:23;;;;;;;9.25;1.77;;;;;;;16.72;64.22;101922.75;5033772;28;20214;-48
2022/09/20 10:32:26;;;;;;;6.63;1.27;;;;;;;17.08;63.40;101909.34;5038550;28;20191;-48
2022/09/20 10:35:00;;;;;;;7.18;1.48;;;;;;;17.10;62.15;101918.28;5040803;28;20299;-49
2022/09/20 10:37:58;;;;;;;4.28;1.27;;;;;;;16.69;62.64;101918.38;5051544;28;20199;-48
2022/09/20 10:44:04;;;;;;;7.20;1.50;;;;;;;17.08;62.26;101912.06;5037017;28;20230;-48
2022/09/20 10:46:50;;;;;;;5.20;1.60;;;;;;;16.17;61.38;101918.03;5041291;28;20184;-46
2022/09/20 10:49:35;;;;;;;6.30;1.50;;;;;;;16.88;61.51;101918.41;5040069;28;20215;-46
2022/09/20 10:52:15;;;;;;;3.97;1.40;;;;;;;17.03;62.13;101916.78;5038590;28;20195;-48
2022/09/20 10:54:52;;;;;;;8.45;1.83;;;;;;;16.51;64.25;101919.19;5033039;28;20241;-49
2022/09/20 10:57:35;;;;;;;8.52;1.42;;;;;;;16.69;64.98;101935.47;5044142;28;20187;-48
2022/09/20 11:00:17;;;;;;;10.35;1.52;;;;;;;16.39;64.93;101931.47;5044338;28;20210;-47
2022/09/20 11:02:52;;;;;;;6.07;1.77;;;;;;;16.68;65.74;101930.13;5041075;28;20242;-48
2022/09/20 11:05:37;;;;;;;7.72;1.20;;;;;;;16.57;64.83;101929.75;5037856;28;20595;-49
2022/09/20 11:08:13;;;;;;;8.85;1.50;;;;;;;16.78;65.48;101933.28;5037367;28;20247;-47
2022/09/20 11:11:05;;;;;;;10.38;1.50;;;;;;;15.91;65.64;101948.88;5047731;28;20218;-47
2022/09/20 11:13:48;;;;;;;11.30;1.95;;;;;;;16.74;66.29;101940.66;5046178;28;20203;-49
2022/09/20 11:16:26;;;;;;;4.75;1.35;;;;;;;16.91;62.82;101937.22;5044592;28;20188;-48
2022/09/20 11:19:01;;;;;;;9.57;2.28;;;;;;;16.66;66.41;101951.84;5039635;28;20295;-49
2022/09/20 11:21:38;;;;;;;8.57;1.77;;;;;;;16.59;65.74;101944.06;5037743;28;20195;-47
2022/09/20 11:24:27;;;;;;;10.68;1.60;;;;;;;16.11;65.73;101948.03;5032196;28;20179;-48
2022/09/20 11:26:59;;;;;;;15.43;2.08;;;;;;;16.60;63.80;101941.31;5042932;28;20285;-48
2022/09/20 11:29:45;;;;;;;17.95;3.33;;;;;;;16.62;65.21;101947.53;5039573;28;20219;-49
2022/09/20 11:32:27;;;;;;;9.13;1.80;;;;;;;16.68;64.99;101949.06;5040602;28;20195;-48
2022/09/20 11:34:57;;;;;;;7.75;1.90;;;;;;;16.48;64.08;101948.13;5045685;28;20183;-47
2022/09/20 11:37:32;;;;;;;8.57;2.03;;;;;;;15.98;64.18;101945.88;5047792;28;20195;-48
2022/09/20 11:40:03;;;;;;;10.32;2.33;;;;;;;16.69;65.13;101950.84;5033109;28;20940;-48
2022/09/20 11:42:34;;;;;;;8.30;1.63;;;;;;;16.28;64.92;101951.75;5036700;28;20241;-46
2022/09/20 11:45:00;;;;;;;7.22;1.95;;;;;;;16.36;65.51;101953.25;5038916;28;20183;-46
2022/09/20 11:47:34;;;;;;;10.13;1.80;;;;;;;16.64;65.29;101945.63;5042400;28;20186;-48
2022/09/20 11:50:34;;;;;;;7.50;1.70;;;;;;;16.71;62.67;101950.78;5035768;28;20204;-51
2022/09/20 11:53:02;;;;;;;5.43;1.17;;;;;;;16.23;62.83;101952.91;5032123;28;20219;-52
2022/09/20 11:55:53;;;;;;;7.60;1.58;;;;;;;16.57;63.67;101956.78;5038313;28;20196;-49
2022/09/20 11:58:21;;;;;;;6.15;1.55;;;;;;;16.00;62.23;101960.16;5053556;28;20208;-47
2022/09/20 12:00:50;;;;;;;5.03;1.30;;;;;;;16.66;63.18;101957.28;5036780;28;20183;-47
2022/09/20 12:03:36;;;;;;;5.03;1.30;;;;;;;16.66;63.20;101957.28;5037848;28;20202;-45
2022/09/20 12:06:07;;;;;;;7.50;1.38;;;;;;;16.62;62.96;101963.78;5034662;28;20666;-49
2022/09/20 12:08:48;;;;;;;5.53;1.40;;;;;;;16.94;63.22;101963.25;5035766;28;20212;-47
2022/09/20 12:11:15;;;;;;;5.80;1.60;;;;;;;16.61;63.32;101961.13;5034471;28;20188;-48
2022/09/20 12:13:51;;;;;;;3.47;1.13;;;;;;;16.53;63.79;101960.59;5040771;28;20208;-48
2022/09/20 12:16:39;;;;;;;4.53;1.27;;;;;;;17.01;62.66;101957.50;5038469;28;20234;-48
2022/09/20 12:19:09;;;;;;;5.07;1.10;;;;;;;17.25;61.57;101966.28;5037526;28;20217;-48